sensor_id;sensor_type;location;lat;lon;timestamp;pressure;altitude;pressure_sealevel;temperature;humidity
33781;BME280;20097;50.832;19.100;2022-07-22T00:05:02;98341.16;;;20.64;90.93
33781;BME280;20097;50.832;19.100;2022-07-22T00:10:09;98384.22;;;20.42;94.90
33781;BME280;20097;50.832;19.100;2022-07-22T00:15:16;98358.03;;;20.34;95.05
33781;BME280;20097;50.832;19.100;2022-07-22T00:20:20;98358.53;;;20.20;96.63
33781;BME280;20097;50.832;19.100;2022-07-22T00:25:25;98385.72;;;20.04;98.36
33781;BME280;20097;50.832;19.100;2022-07-22T00:30:32;98364.06;;;19.84;100.00
33781;BME280;20097;50.832;19.100;2022-07-22T00:35:37;98361.44;;;19.72;100.00
33781;BME280;20097;50.832;19.100;2022-07-22T00:40:46;98374.53;;;19.56;100.00
33781;BME280;20097;50.832;19.100;2022-07-22T00:45:51;98367.50;;;19.38;100.00
33781;BME280;20097;50.832;19.100;2022-07-22T00:50:57;98368.53;;;19.19;100.00
33781;BME280;20097;50.832;19.100;2022-07-22T00:56:02;98363.91;;;19.03;100.00
33781;BME280;20097;50.832;19.100;2022-07-22T01:01:09;98368.03;;;18.99;100.00
33781;BME280;20097;50.832;19.100;2022-07-22T01:06:16;98359.25;;;18.87;100.00
33781;BME280;20097;50.832;19.100;2022-07-22T01:11:20;98369.47;;;18.83;100.00
33781;BME280;20097;50.832;19.100;2022-07-22T01:16:29;98360.38;;;18.79;100.00
33781;BME280;20097;50.832;19.100;2022-07-22T01:21:35;98363.56;;;18.70;100.00
33781;BME280;20097;50.832;19.100;2022-07-22T01:26:40;98356.81;;;18.56;100.00
33781;BME280;20097;50.832;19.100;2022-07-22T01:31:46;98359.53;;;18.49;100.00
33781;BME280;20097;50.832;19.100;2022-07-22T01:36:51;98350.44;;;18.45;100.00
33781;BME280;20097;50.832;19.100;2022-07-22T01:41:56;98345.59;;;18.24;100.00
33781;BME280;20097;50.832;19.100;2022-07-22T01:47:01;98351.88;;;18.23;100.00
33781;BME280;20097;50.832;19.100;2022-07-22T01:52:10;98349.09;;;18.18;100.00
33781;BME280;20097;50.832;19.100;2022-07-22T01:57:16;98329.50;;;18.26;100.00
33781;BME280;20097;50.832;19.100;2022-07-22T02:02:25;98341.97;;;18.37;100.00
33781;BME280;20097;50.832;19.100;2022-07-22T02:07:31;98344.03;;;18.35;100.00
33781;BME280;20097;50.832;19.100;2022-07-22T02:12:36;98350.94;;;18.36;100.00
33781;BME280;20097;50.832;19.100;2022-07-22T02:17:44;98364.03;;;18.49;100.00
33781;BME280;20097;50.832;19.100;2022-07-22T02:22:53;98363.00;;;18.50;100.00
33781;BME280;20097;50.832;19.100;2022-07-22T02:27:57;98373.78;;;18.48;100.00
33781;BME280;20097;50.832;19.100;2022-07-22T02:33:02;98370.44;;;18.35;100.00
33781;BME280;20097;50.832;19.100;2022-07-22T02:38:08;98385.59;;;18.28;100.00
33781;BME280;20097;50.832;19.100;2022-07-22T02:43:16;98378.53;;;18.22;100.00
33781;BME280;20097;50.832;19.100;2022-07-22T02:48:21;98374.66;;;18.24;100.00
33781;BME280;20097;50.832;19.100;2022-07-22T02:53:28;98373.09;;;18.17;100.00
33781;BME280;20097;50.832;19.100;2022-07-22T02:58:35;98376.31;;;18.19;100.00
33781;BME280;20097;50.832;19.100;2022-07-22T03:03:42;98382.81;;;18.23;100.00
33781;BME280;20097;50.832;19.100;2022-07-22T03:08:48;98383.59;;;18.23;100.00
33781;BME280;20097;50.832;19.100;2022-07-22T03:13:52;98386.31;;;18.35;100.00
33781;BME280;20097;50.832;19.100;2022-07-22T03:19:00;98397.44;;;18.43;100.00
33781;BME280;20097;50.832;19.100;2022-07-22T03:24:06;98405.94;;;18.63;100.00
33781;BME280;20097;50.832;19.100;2022-07-22T03:29:11;98413.94;;;18.75;100.00
33781;BME280;20097;50.832;19.100;2022-07-22T03:34:16;98430.22;;;18.90;100.00
33781;BME280;20097;50.832;19.100;2022-07-22T03:39:30;98438.31;;;19.25;100.00
33781;BME280;20097;50.832;19.100;2022-07-22T03:44:37;98446.94;;;19.50;100.00
33781;BME280;20097;50.832;19.100;2022-07-22T03:49:42;98448.38;;;19.75;100.00
33781;BME280;20097;50.832;19.100;2022-07-22T03:54:52;98443.56;;;19.95;100.00
33781;BME280;20097;50.832;19.100;2022-07-22T03:59:58;98449.44;;;20.09;100.00
33781;BME280;20097;50.832;19.100;2022-07-22T04:05:06;98454.28;;;20.23;100.00
33781;BME280;20097;50.832;19.100;2022-07-22T04:10:21;98458.34;;;20.37;100.00
33781;BME280;20097;50.832;19.100;2022-07-22T04:15:26;98462.94;;;20.54;100.00
33781;BME280;20097;50.832;19.100;2022-07-22T04:20:31;98451.84;;;20.57;100.00
33781;BME280;20097;50.832;19.100;2022-07-22T04:26:05;98447.06;;;20.82;100.00
33781;BME280;20097;50.832;19.100;2022-07-22T04:31:10;98438.28;;;21.04;100.00
33781;BME280;20097;50.832;19.100;2022-07-22T04:36:18;98439.63;;;21.35;100.00
33781;BME280;20097;50.832;19.100;2022-07-22T04:41:24;98449.81;;;21.54;100.00
33781;BME280;20097;50.832;19.100;2022-07-22T04:46:28;98447.47;;;21.74;100.00
33781;BME280;20097;50.832;19.100;2022-07-22T04:51:37;98443.88;;;21.97;100.00
33781;BME280;20097;50.832;19.100;2022-07-22T04:56:47;98451.16;;;22.18;100.00
33781;BME280;20097;50.832;19.100;2022-07-22T05:01:52;98458.81;;;22.36;100.00
33781;BME280;20097;50.832;19.100;2022-07-22T05:06:57;98449.47;;;22.50;100.00
33781;BME280;20097;50.832;19.100;2022-07-22T05:12:03;98452.34;;;22.65;100.00
33781;BME280;20097;50.832;19.100;2022-07-22T05:17:09;98454.69;;;22.83;100.00
33781;BME280;20097;50.832;19.100;2022-07-22T05:22:30;98441.50;;;23.15;100.00
33781;BME280;20097;50.832;19.100;2022-07-22T05:27:50;98428.69;;;23.34;100.00
33781;BME280;20097;50.832;19.100;2022-07-22T05:33:00;98432.22;;;23.44;100.00
33781;BME280;20097;50.832;19.100;2022-07-22T05:38:25;98435.09;;;23.64;100.00
33781;BME280;20097;50.832;19.100;2022-07-22T05:43:30;98443.69;;;23.76;100.00
33781;BME280;20097;50.832;19.100;2022-07-22T05:48:36;98423.59;;;23.64;97.58
33781;BME280;20097;50.832;19.100;2022-07-22T05:53:41;98412.13;;;23.63;100.00
33781;BME280;20097;50.832;19.100;2022-07-22T05:58:48;98404.59;;;23.87;99.22
33781;BME280;20097;50.832;19.100;2022-07-22T06:03:52;98405.81;;;24.06;96.14
33781;BME280;20097;50.832;19.100;2022-07-22T06:08:57;98416.03;;;24.19;95.37
33781;BME280;20097;50.832;19.100;2022-07-22T06:14:03;98410.19;;;24.22;93.10
33781;BME280;20097;50.832;19.100;2022-07-22T06:19:11;98410.31;;;24.42;93.24
33781;BME280;20097;50.832;19.100;2022-07-22T06:24:15;98422.56;;;24.43;88.39
33781;BME280;20097;50.832;19.100;2022-07-22T06:29:30;98435.50;;;24.66;87.39
33781;BME280;20097;50.832;19.100;2022-07-22T06:34:34;98437.50;;;24.86;88.10
33781;BME280;20097;50.832;19.100;2022-07-22T06:39:40;98453.06;;;25.09;86.50
33781;BME280;20097;50.832;19.100;2022-07-22T06:44:55;98461.41;;;25.22;83.73
33781;BME280;20097;50.832;19.100;2022-07-22T06:50:10;98462.00;;;25.39;83.16
33781;BME280;20097;50.832;19.100;2022-07-22T06:55:16;98450.25;;;25.60;81.31
33781;BME280;20097;50.832;19.100;2022-07-22T07:00:33;98448.16;;;25.78;81.46
33781;BME280;20097;50.832;19.100;2022-07-22T07:05:57;98453.22;;;25.84;77.09
33781;BME280;20097;50.832;19.100;2022-07-22T07:11:11;98444.41;;;25.94;76.33
33781;BME280;20097;50.832;19.100;2022-07-22T07:16:17;98455.38;;;26.17;75.45
33781;BME280;20097;50.832;19.100;2022-07-22T07:21:21;98458.75;;;26.58;74.01
33781;BME280;20097;50.832;19.100;2022-07-22T07:26:25;98443.75;;;26.62;71.31
33781;BME280;20097;50.832;19.100;2022-07-22T07:31:31;98442.75;;;26.38;69.86
33781;BME280;20097;50.832;19.100;2022-07-22T07:36:40;98450.81;;;26.18;73.37
33781;BME280;20097;50.832;19.100;2022-07-22T07:41:47;98462.84;;;26.15;74.39
33781;BME280;20097;50.832;19.100;2022-07-22T07:46:58;98462.31;;;26.23;75.75
33781;BME280;20097;50.832;19.100;2022-07-22T07:52:03;98468.44;;;26.39;74.77
33781;BME280;20097;50.832;19.100;2022-07-22T07:57:08;98462.03;;;26.35;75.28
33781;BME280;20097;50.832;19.100;2022-07-22T08:02:17;98462.00;;;26.40;72.98
33781;BME280;20097;50.832;19.100;2022-07-22T08:07:21;98471.06;;;26.69;73.74
33781;BME280;20097;50.832;19.100;2022-07-22T08:12:28;98485.94;;;27.05;71.13
33781;BME280;20097;50.832;19.100;2022-07-22T08:17:57;98476.72;;;27.31;69.61
33781;BME280;20097;50.832;19.100;2022-07-22T08:23:01;98488.38;;;27.55;68.98
33781;BME280;20097;50.832;19.100;2022-07-22T08:28:08;98481.28;;;27.74;65.62
33781;BME280;20097;50.832;19.100;2022-07-22T08:33:13;98492.72;;;27.51;66.82
33781;BME280;20097;50.832;19.100;2022-07-22T08:38:18;98493.44;;;27.62;65.88
33781;BME280;20097;50.832;19.100;2022-07-22T08:43:23;98489.25;;;27.84;65.49
33781;BME280;20097;50.832;19.100;2022-07-22T08:48:29;98500.78;;;27.90;65.86
33781;BME280;20097;50.832;19.100;2022-07-22T08:53:54;98497.47;;;28.03;64.44
33781;BME280;20097;50.832;19.100;2022-07-22T08:58:59;98487.84;;;27.97;64.22
33781;BME280;20097;50.832;19.100;2022-07-22T09:04:06;98495.13;;;27.91;61.86
33781;BME280;20097;50.832;19.100;2022-07-22T09:09:11;98486.97;;;28.06;63.93
33781;BME280;20097;50.832;19.100;2022-07-22T09:14:43;98485.09;;;28.36;61.86
33781;BME280;20097;50.832;19.100;2022-07-22T09:20:17;98481.47;;;28.50;61.30
33781;BME280;20097;50.832;19.100;2022-07-22T09:25:47;98479.34;;;28.47;59.94
33781;BME280;20097;50.832;19.100;2022-07-22T09:31:01;98488.75;;;28.97;60.15
33781;BME280;20097;50.832;19.100;2022-07-22T09:36:13;98477.53;;;29.13;59.59
33781;BME280;20097;50.832;19.100;2022-07-22T09:41:18;98490.19;;;29.13;55.67
33781;BME280;20097;50.832;19.100;2022-07-22T09:46:34;98485.78;;;29.22;55.77
33781;BME280;20097;50.832;19.100;2022-07-22T09:51:59;98489.47;;;29.26;55.86
33781;BME280;20097;50.832;19.100;2022-07-22T09:57:11;98491.72;;;28.95;56.72
33781;BME280;20097;50.832;19.100;2022-07-22T10:02:16;98489.50;;;29.02;57.72
33781;BME280;20097;50.832;19.100;2022-07-22T10:07:24;98484.97;;;29.58;57.66
33781;BME280;20097;50.832;19.100;2022-07-22T10:12:30;98487.84;;;29.67;57.68
33781;BME280;20097;50.832;19.100;2022-07-22T10:17:36;98470.63;;;30.00;55.80
33781;BME280;20097;50.832;19.100;2022-07-22T10:22:47;98464.81;;;29.93;53.96
33781;BME280;20097;50.832;19.100;2022-07-22T10:27:55;98470.94;;;29.99;53.13
33781;BME280;20097;50.832;19.100;2022-07-22T10:33:11;98466.94;;;30.28;51.20
33781;BME280;20097;50.832;19.100;2022-07-22T10:38:17;98466.38;;;30.45;51.91
33781;BME280;20097;50.832;19.100;2022-07-22T10:43:24;98463.41;;;30.73;51.31
33781;BME280;20097;50.832;19.100;2022-07-22T10:48:44;98458.00;;;31.01;51.60
33781;BME280;20097;50.832;19.100;2022-07-22T10:53:56;98462.38;;;30.69;49.10
33781;BME280;20097;50.832;19.100;2022-07-22T10:59:08;98456.84;;;30.93;49.39
33781;BME280;20097;50.832;19.100;2022-07-22T11:04:15;98448.75;;;31.42;48.46
33781;BME280;20097;50.832;19.100;2022-07-22T11:09:23;98455.47;;;31.45;47.37
33781;BME280;20097;50.832;19.100;2022-07-22T11:14:34;98448.22;;;31.54;48.92
33781;BME280;20097;50.832;19.100;2022-07-22T11:19:39;98449.47;;;32.14;45.77
33781;BME280;20097;50.832;19.100;2022-07-22T11:24:48;98442.09;;;32.06;46.01
33781;BME280;20097;50.832;19.100;2022-07-22T11:29:54;98446.13;;;32.78;45.08
33781;BME280;20097;50.832;19.100;2022-07-22T11:34:59;98448.63;;;32.36;43.94
33781;BME280;20097;50.832;19.100;2022-07-22T11:40:07;98446.81;;;32.92;43.32
33781;BME280;20097;50.832;19.100;2022-07-22T11:45:12;98451.94;;;32.63;42.82
33781;BME280;20097;50.832;19.100;2022-07-22T11:50:16;98441.31;;;33.31;43.22
33781;BME280;20097;50.832;19.100;2022-07-22T11:55:22;98447.63;;;32.93;42.43
33781;BME280;20097;50.832;19.100;2022-07-22T12:00:26;98429.34;;;32.90;43.44
33781;BME280;20097;50.832;19.100;2022-07-22T12:05:31;98432.34;;;32.97;43.93
33781;BME280;20097;50.832;19.100;2022-07-22T12:10:37;98439.41;;;32.76;42.77
33781;BME280;20097;50.832;19.100;2022-07-22T12:15:41;98436.22;;;33.21;41.98
33781;BME280;20097;50.832;19.100;2022-07-22T12:20:49;98423.31;;;33.18;42.31
33781;BME280;20097;50.832;19.100;2022-07-22T12:25:59;98417.28;;;33.38;42.25
33781;BME280;20097;50.832;19.100;2022-07-22T12:31:03;98410.13;;;33.94;42.92
33781;BME280;20097;50.832;19.100;2022-07-22T12:36:10;98405.97;;;33.36;42.87
33781;BME280;20097;50.832;19.100;2022-07-22T12:41:26;98416.81;;;33.71;42.38
33781;BME280;20097;50.832;19.100;2022-07-22T12:46:31;98399.59;;;33.92;42.11
33781;BME280;20097;50.832;19.100;2022-07-22T12:51:38;98403.44;;;33.83;40.62
33781;BME280;20097;50.832;19.100;2022-07-22T12:56:44;98389.38;;;32.95;43.38
33781;BME280;20097;50.832;19.100;2022-07-22T13:01:48;98396.59;;;33.43;42.06
33781;BME280;20097;50.832;19.100;2022-07-22T13:06:53;98392.44;;;34.34;40.69
33781;BME280;20097;50.832;19.100;2022-07-22T13:11:58;98394.16;;;34.76;40.60
33781;BME280;20097;50.832;19.100;2022-07-22T13:17:03;98381.59;;;33.79;40.87
33781;BME280;20097;50.832;19.100;2022-07-22T13:22:07;98375.25;;;32.90;41.53
33781;BME280;20097;50.832;19.100;2022-07-22T13:27:13;98368.59;;;32.18;43.34
33781;BME280;20097;50.832;19.100;2022-07-22T13:32:18;98360.06;;;31.93;44.06
33781;BME280;20097;50.832;19.100;2022-07-22T13:37:36;98383.06;;;33.17;42.73
33781;BME280;20097;50.832;19.100;2022-07-22T13:42:42;98371.53;;;34.05;41.30
33781;BME280;20097;50.832;19.100;2022-07-22T13:47:46;98373.13;;;34.44;40.12
33781;BME280;20097;50.832;19.100;2022-07-22T13:52:50;98375.38;;;34.71;39.09
33781;BME280;20097;50.832;19.100;2022-07-22T13:57:56;98358.47;;;35.36;41.79
33781;BME280;20097;50.832;19.100;2022-07-22T14:03:01;98370.28;;;35.19;38.10
33781;BME280;20097;50.832;19.100;2022-07-22T14:08:05;98372.53;;;34.97;38.03
33781;BME280;20097;50.832;19.100;2022-07-22T14:13:11;98368.00;;;35.62;36.91
33781;BME280;20097;50.832;19.100;2022-07-22T14:18:15;98369.06;;;36.15;36.19
33781;BME280;20097;50.832;19.100;2022-07-22T14:23:19;98359.50;;;35.97;36.59
33781;BME280;20097;50.832;19.100;2022-07-22T14:28:27;98354.00;;;34.99;38.66
33781;BME280;20097;50.832;19.100;2022-07-22T14:33:37;98346.66;;;35.40;38.67
33781;BME280;20097;50.832;19.100;2022-07-22T14:38:42;98358.06;;;36.11;36.71
33781;BME280;20097;50.832;19.100;2022-07-22T14:43:47;98361.50;;;36.44;35.60
33781;BME280;20097;50.832;19.100;2022-07-22T14:48:51;98358.22;;;36.51;35.37
33781;BME280;20097;50.832;19.100;2022-07-22T14:53:56;98367.16;;;36.75;33.72
33781;BME280;20097;50.832;19.100;2022-07-22T14:59:03;98363.53;;;36.83;34.11
33781;BME280;20097;50.832;19.100;2022-07-22T15:04:07;98355.00;;;37.64;33.71
33781;BME280;20097;50.832;19.100;2022-07-22T15:09:12;98370.13;;;37.22;33.09
33781;BME280;20097;50.832;19.100;2022-07-22T15:14:18;98363.97;;;36.85;33.23
33781;BME280;20097;50.832;19.100;2022-07-22T15:19:22;98343.25;;;36.57;35.03
33781;BME280;20097;50.832;19.100;2022-07-22T15:24:30;98340.88;;;36.55;34.80
33781;BME280;20097;50.832;19.100;2022-07-22T15:29:36;98336.31;;;36.71;35.07
33781;BME280;20097;50.832;19.100;2022-07-22T15:34:43;98338.69;;;37.52;33.57
33781;BME280;20097;50.832;19.100;2022-07-22T15:39:51;98350.53;;;37.72;32.04
33781;BME280;20097;50.832;19.100;2022-07-22T15:44:59;98351.03;;;37.89;31.29
33781;BME280;20097;50.832;19.100;2022-07-22T15:50:04;98360.16;;;37.81;30.98
33781;BME280;20097;50.832;19.100;2022-07-22T15:55:09;98336.22;;;36.80;31.88
33781;BME280;20097;50.832;19.100;2022-07-22T16:00:15;98331.81;;;35.17;33.28
33781;BME280;20097;50.832;19.100;2022-07-22T16:05:20;98316.72;;;34.00;34.90
33781;BME280;20097;50.832;19.100;2022-07-22T16:10:24;98312.69;;;33.43;35.57
33781;BME280;20097;50.832;19.100;2022-07-22T16:15:30;98307.28;;;33.08;36.15
33781;BME280;20097;50.832;19.100;2022-07-22T16:20:35;98303.13;;;32.68;36.48
33781;BME280;20097;50.832;19.100;2022-07-22T16:25:39;98305.38;;;32.27;37.01
33781;BME280;20097;50.832;19.100;2022-07-22T16:30:45;98293.00;;;31.87;37.90
33781;BME280;20097;50.832;19.100;2022-07-22T16:35:49;98290.63;;;31.63;38.94
33781;BME280;20097;50.832;19.100;2022-07-22T16:40:53;98294.06;;;31.47;38.90
33781;BME280;20097;50.832;19.100;2022-07-22T16:45:58;98290.97;;;31.18;39.60
33781;BME280;20097;50.832;19.100;2022-07-22T16:51:04;98283.31;;;31.11;39.00
33781;BME280;20097;50.832;19.100;2022-07-22T16:56:09;98285.25;;;30.97;39.49
33781;BME280;20097;50.832;19.100;2022-07-22T17:01:14;98290.72;;;30.70;40.66
33781;BME280;20097;50.832;19.100;2022-07-22T17:06:19;98290.34;;;30.49;40.49
33781;BME280;20097;50.832;19.100;2022-07-22T17:11:23;98299.66;;;30.30;41.37
33781;BME280;20097;50.832;19.100;2022-07-22T17:16:29;98287.94;;;30.07;41.64
33781;BME280;20097;50.832;19.100;2022-07-22T17:21:33;98298.22;;;29.92;41.64
33781;BME280;20097;50.832;19.100;2022-07-22T17:26:38;98295.03;;;29.76;42.33
33781;BME280;20097;50.832;19.100;2022-07-22T17:31:43;98286.78;;;29.54;42.92
33781;BME280;20097;50.832;19.100;2022-07-22T17:36:47;98288.13;;;29.38;44.75
33781;BME280;20097;50.832;19.100;2022-07-22T17:41:52;98276.72;;;29.14;46.68
33781;BME280;20097;50.832;19.100;2022-07-22T17:46:57;98284.63;;;28.87;46.40
33781;BME280;20097;50.832;19.100;2022-07-22T17:52:02;98284.72;;;28.40;49.16
33781;BME280;20097;50.832;19.100;2022-07-22T17:57:07;98284.53;;;28.12;50.33
33781;BME280;20097;50.832;19.100;2022-07-22T18:02:12;98295.34;;;27.79;52.13
33781;BME280;20097;50.832;19.100;2022-07-22T18:07:17;98303.00;;;27.33;53.78
33781;BME280;20097;50.832;19.100;2022-07-22T18:12:21;98299.47;;;27.04;55.02
33781;BME280;20097;50.832;19.100;2022-07-22T18:17:27;98292.94;;;26.76;56.00
33781;BME280;20097;50.832;19.100;2022-07-22T18:22:32;98290.66;;;26.45;56.83
33781;BME280;20097;50.832;19.100;2022-07-22T18:27:36;98290.25;;;26.23;57.34
33781;BME280;20097;50.832;19.100;2022-07-22T18:32:41;98292.47;;;25.91;58.73
33781;BME280;20097;50.832;19.100;2022-07-22T18:37:47;98303.22;;;25.65;59.24
33781;BME280;20097;50.832;19.100;2022-07-22T18:42:52;98299.22;;;25.43;59.98
33781;BME280;20097;50.832;19.100;2022-07-22T18:47:57;98305.09;;;25.25;60.88
33781;BME280;20097;50.832;19.100;2022-07-22T18:53:01;98304.25;;;24.89;63.03
33781;BME280;20097;50.832;19.100;2022-07-22T18:58:06;98305.84;;;24.70;64.10
33781;BME280;20097;50.832;19.100;2022-07-22T19:03:12;98311.88;;;24.51;65.21
33781;BME280;20097;50.832;19.100;2022-07-22T19:08:17;98320.34;;;24.32;66.43
33781;BME280;20097;50.832;19.100;2022-07-22T19:13:21;98315.69;;;24.08;67.74
33781;BME280;20097;50.832;19.100;2022-07-22T19:18:27;98319.03;;;23.88;69.13
33781;BME280;20097;50.832;19.100;2022-07-22T19:23:31;98319.69;;;23.69;70.99
33781;BME280;20097;50.832;19.100;2022-07-22T19:28:35;98308.97;;;23.59;69.65
33781;BME280;20097;50.832;19.100;2022-07-22T19:33:41;98313.94;;;23.45;71.05
33781;BME280;20097;50.832;19.100;2022-07-22T19:38:45;98306.63;;;23.31;71.81
33781;BME280;20097;50.832;19.100;2022-07-22T19:43:49;98314.22;;;23.17;72.77
33781;BME280;20097;50.832;19.100;2022-07-22T19:48:55;98310.13;;;23.09;73.06
33781;BME280;20097;50.832;19.100;2022-07-22T19:54:01;98312.47;;;23.01;73.95
33781;BME280;20097;50.832;19.100;2022-07-22T19:59:05;98312.06;;;22.87;75.56
33781;BME280;20097;50.832;19.100;2022-07-22T20:04:10;98314.38;;;22.79;76.48
33781;BME280;20097;50.832;19.100;2022-07-22T20:09:15;98312.97;;;22.71;76.65
33781;BME280;20097;50.832;19.100;2022-07-22T20:14:19;98310.25;;;22.66;77.37
33781;BME280;20097;50.832;19.100;2022-07-22T20:19:24;98314.41;;;22.57;77.64
33781;BME280;20097;50.832;19.100;2022-07-22T20:24:29;98317.13;;;22.41;79.12
33781;BME280;20097;50.832;19.100;2022-07-22T20:29:33;98316.81;;;22.37;79.76
33781;BME280;20097;50.832;19.100;2022-07-22T20:34:42;98318.03;;;22.30;82.48
33781;BME280;20097;50.832;19.100;2022-07-22T20:39:47;98316.63;;;22.22;82.16
33781;BME280;20097;50.832;19.100;2022-07-22T20:44:51;98314.09;;;22.11;84.22
33781;BME280;20097;50.832;19.100;2022-07-22T20:49:56;98320.81;;;21.97;85.30
33781;BME280;20097;50.832;19.100;2022-07-22T20:55:00;98315.69;;;21.90;85.30
33781;BME280;20097;50.832;19.100;2022-07-22T21:00:06;98312.47;;;21.88;84.84
33781;BME280;20097;50.832;19.100;2022-07-22T21:05:13;98314.97;;;21.78;86.48
33781;BME280;20097;50.832;19.100;2022-07-22T21:10:17;98322.75;;;21.68;88.29
33781;BME280;20097;50.832;19.100;2022-07-22T21:15:23;98322.69;;;21.63;89.05
33781;BME280;20097;50.832;19.100;2022-07-22T21:20:29;98321.56;;;21.59;89.98
33781;BME280;20097;50.832;19.100;2022-07-22T21:25:33;98319.91;;;21.53;90.15
33781;BME280;20097;50.832;19.100;2022-07-22T21:30:37;98325.03;;;21.43;91.19
33781;BME280;20097;50.832;19.100;2022-07-22T21:35:43;98328.59;;;21.32;92.52
33781;BME280;20097;50.832;19.100;2022-07-22T21:40:47;98329.53;;;21.26;95.06
33781;BME280;20097;50.832;19.100;2022-07-22T21:45:52;98321.97;;;21.18;95.76
33781;BME280;20097;50.832;19.100;2022-07-22T21:50:58;98321.09;;;21.12;95.06
33781;BME280;20097;50.832;19.100;2022-07-22T21:56:03;98319.84;;;21.03;97.84
33781;BME280;20097;50.832;19.100;2022-07-22T22:01:25;98320.00;;;20.97;98.31
33781;BME280;20097;50.832;19.100;2022-07-22T22:06:30;98320.28;;;20.84;100.00
33781;BME280;20097;50.832;19.100;2022-07-22T22:11:34;98325.09;;;20.70;100.00
33781;BME280;20097;50.832;19.100;2022-07-22T22:16:39;98328.75;;;20.69;100.00
33781;BME280;20097;50.832;19.100;2022-07-22T22:21:45;98329.25;;;20.66;100.00
33781;BME280;20097;50.832;19.100;2022-07-22T22:26:49;98331.47;;;20.58;100.00
33781;BME280;20097;50.832;19.100;2022-07-22T22:31:53;98324.22;;;20.53;100.00
33781;BME280;20097;50.832;19.100;2022-07-22T22:36:59;98323.69;;;20.39;100.00
33781;BME280;20097;50.832;19.100;2022-07-22T22:42:07;98326.81;;;20.36;100.00
33781;BME280;20097;50.832;19.100;2022-07-22T22:47:12;98319.56;;;20.32;100.00
33781;BME280;20097;50.832;19.100;2022-07-22T22:52:17;98328.94;;;20.23;100.00
33781;BME280;20097;50.832;19.100;2022-07-22T22:57:21;98330.28;;;20.14;100.00
33781;BME280;20097;50.832;19.100;2022-07-22T23:02:26;98329.28;;;20.03;100.00
33781;BME280;20097;50.832;19.100;2022-07-22T23:07:34;98328.59;;;19.96;100.00
33781;BME280;20097;50.832;19.100;2022-07-22T23:12:38;98332.16;;;19.79;100.00
33781;BME280;20097;50.832;19.100;2022-07-22T23:17:43;98324.91;;;19.74;100.00
33781;BME280;20097;50.832;19.100;2022-07-22T23:22:48;98333.66;;;19.75;100.00
33781;BME280;20097;50.832;19.100;2022-07-22T23:27:52;98325.47;;;19.65;100.00
33781;BME280;20097;50.832;19.100;2022-07-22T23:32:56;98328.69;;;19.55;100.00
33781;BME280;20097;50.832;19.100;2022-07-22T23:38:03;98323.88;;;19.52;100.00
33781;BME280;20097;50.832;19.100;2022-07-22T23:43:07;98327.78;;;19.38;100.00
33781;BME280;20097;50.832;19.100;2022-07-22T23:48:11;98331.56;;;19.42;100.00
33781;BME280;20097;50.832;19.100;2022-07-22T23:53:17;98331.91;;;19.34;100.00
33781;BME280;20097;50.832;19.100;2022-07-22T23:58:21;98326.19;;;19.19;100.00
